Air Navigation Services of Czech Republic
Airport: LKLN Updated:  28.01.2021 00:56:24  UTC
 METAR LKLN 28.01. 01:00 ...
METAR LKLN 280100Z AUTO 22008KT 9999 -SN OVC016 00/M01 Q1011=